sensor_id;sensor_type;location;lat;lon;timestamp;P1;durP1;ratioP1;P2;durP2;ratioP2
42146;SDS011;27815;43.410;11.852;2023-07-29T00:00:05;5.80;;;2.83;;
42146;SDS011;27815;43.410;11.852;2023-07-29T00:04:13;8.23;;;3.05;;
42146;SDS011;27815;43.410;11.852;2023-07-29T00:08:16;5.45;;;3.10;;
42146;SDS011;27815;43.410;11.852;2023-07-29T00:12:19;5.47;;;2.95;;
42146;SDS011;27815;43.410;11.852;2023-07-29T00:16:23;5.80;;;2.90;;
42146;SDS011;27815;43.410;11.852;2023-07-29T00:20:26;6.55;;;3.35;;
42146;SDS011;27815;43.410;11.852;2023-07-29T00:24:28;5.05;;;2.97;;
42146;SDS011;27815;43.410;11.852;2023-07-29T00:28:32;5.57;;;3.45;;
42146;SDS011;27815;43.410;11.852;2023-07-29T00:32:39;7.13;;;3.33;;
42146;SDS011;27815;43.410;11.852;2023-07-29T00:36:45;4.72;;;3.20;;
42146;SDS011;27815;43.410;11.852;2023-07-29T00:40:57;4.15;;;2.92;;
42146;SDS011;27815;43.410;11.852;2023-07-29T00:45:05;4.68;;;2.97;;
42146;SDS011;27815;43.410;11.852;2023-07-29T00:49:10;4.75;;;3.10;;
42146;SDS011;27815;43.410;11.852;2023-07-29T00:53:16;4.55;;;3.05;;
42146;SDS011;27815;43.410;11.852;2023-07-29T00:57:32;6.40;;;3.65;;
42146;SDS011;27815;43.410;11.852;2023-07-29T01:01:49;4.70;;;2.97;;
42146;SDS011;27815;43.410;11.852;2023-07-29T01:05:59;4.72;;;3.25;;
42146;SDS011;27815;43.410;11.852;2023-07-29T01:14:38;6.28;;;3.13;;
42146;SDS011;27815;43.410;11.852;2023-07-29T01:18:52;10.27;;;3.60;;
42146;SDS011;27815;43.410;11.852;2023-07-29T01:22:59;6.07;;;3.42;;
42146;SDS011;27815;43.410;11.852;2023-07-29T01:27:04;5.57;;;3.00;;
42146;SDS011;27815;43.410;11.852;2023-07-29T01:31:27;5.82;;;3.55;;
42146;SDS011;27815;43.410;11.852;2023-07-29T01:35:39;5.97;;;3.10;;
42146;SDS011;27815;43.410;11.852;2023-07-29T01:39:48;6.57;;;3.58;;
42146;SDS011;27815;43.410;11.852;2023-07-29T01:43:55;5.82;;;3.63;;
42146;SDS011;27815;43.410;11.852;2023-07-29T01:48:00;4.93;;;3.28;;
42146;SDS011;27815;43.410;11.852;2023-07-29T01:52:03;5.15;;;3.40;;
42146;SDS011;27815;43.410;11.852;2023-07-29T01:56:07;6.63;;;3.75;;
42146;SDS011;27815;43.410;11.852;2023-07-29T02:00:15;6.03;;;3.85;;
42146;SDS011;27815;43.410;11.852;2023-07-29T02:04:20;5.55;;;3.97;;
42146;SDS011;27815;43.410;11.852;2023-07-29T02:08:25;5.10;;;4.38;;
42146;SDS011;27815;43.410;11.852;2023-07-29T02:12:29;6.93;;;4.13;;
42146;SDS011;27815;43.410;11.852;2023-07-29T02:16:32;8.50;;;4.20;;
42146;SDS011;27815;43.410;11.852;2023-07-29T02:20:38;6.15;;;3.50;;
42146;SDS011;27815;43.410;11.852;2023-07-29T02:24:47;5.30;;;3.53;;
42146;SDS011;27815;43.410;11.852;2023-07-29T02:28:52;6.13;;;3.47;;
42146;SDS011;27815;43.410;11.852;2023-07-29T02:32:57;7.80;;;4.10;;
42146;SDS011;27815;43.410;11.852;2023-07-29T02:37:01;5.32;;;3.90;;
42146;SDS011;27815;43.410;11.852;2023-07-29T02:41:05;6.25;;;3.83;;
42146;SDS011;27815;43.410;11.852;2023-07-29T02:49:15;7.03;;;3.80;;
42146;SDS011;27815;43.410;11.852;2023-07-29T02:53:18;8.40;;;4.25;;
42146;SDS011;27815;43.410;11.852;2023-07-29T02:57:23;6.45;;;4.07;;
42146;SDS011;27815;43.410;11.852;2023-07-29T03:01:35;5.28;;;3.90;;
42146;SDS011;27815;43.410;11.852;2023-07-29T03:06:04;6.80;;;4.47;;
42146;SDS011;27815;43.410;11.852;2023-07-29T03:10:09;8.98;;;4.00;;
42146;SDS011;27815;43.410;11.852;2023-07-29T03:14:13;7.80;;;4.57;;
42146;SDS011;27815;43.410;11.852;2023-07-29T03:18:18;9.23;;;4.63;;
42146;SDS011;27815;43.410;11.852;2023-07-29T03:22:26;7.82;;;4.90;;
42146;SDS011;27815;43.410;11.852;2023-07-29T03:26:37;13.65;;;4.65;;
42146;SDS011;27815;43.410;11.852;2023-07-29T03:30:49;7.80;;;4.35;;
42146;SDS011;27815;43.410;11.852;2023-07-29T03:39:09;8.32;;;4.57;;
42146;SDS011;27815;43.410;11.852;2023-07-29T03:43:13;6.93;;;4.57;;
42146;SDS011;27815;43.410;11.852;2023-07-29T03:47:19;6.80;;;3.83;;
42146;SDS011;27815;43.410;11.852;2023-07-29T03:51:28;6.63;;;4.25;;
42146;SDS011;27815;43.410;11.852;2023-07-29T03:55:31;9.65;;;4.80;;
42146;SDS011;27815;43.410;11.852;2023-07-29T03:59:48;7.63;;;4.45;;
42146;SDS011;27815;43.410;11.852;2023-07-29T04:03:53;7.70;;;4.45;;
42146;SDS011;27815;43.410;11.852;2023-07-29T04:07:57;7.55;;;4.32;;
42146;SDS011;27815;43.410;11.852;2023-07-29T04:12:14;7.63;;;4.68;;
42146;SDS011;27815;43.410;11.852;2023-07-29T04:16:26;6.10;;;4.45;;
42146;SDS011;27815;43.410;11.852;2023-07-29T04:20:31;6.18;;;4.78;;
42146;SDS011;27815;43.410;11.852;2023-07-29T04:24:49;6.75;;;4.65;;
42146;SDS011;27815;43.410;11.852;2023-07-29T04:29:01;6.63;;;4.32;;
42146;SDS011;27815;43.410;11.852;2023-07-29T04:33:04;7.25;;;4.95;;
42146;SDS011;27815;43.410;11.852;2023-07-29T04:37:12;6.57;;;4.63;;
42146;SDS011;27815;43.410;11.852;2023-07-29T04:41:17;6.15;;;4.93;;
42146;SDS011;27815;43.410;11.852;2023-07-29T04:45:36;5.63;;;4.82;;
42146;SDS011;27815;43.410;11.852;2023-07-29T04:49:58;8.15;;;5.45;;
42146;SDS011;27815;43.410;11.852;2023-07-29T04:54:05;8.50;;;6.03;;
42146;SDS011;27815;43.410;11.852;2023-07-29T04:58:09;8.18;;;5.18;;
42146;SDS011;27815;43.410;11.852;2023-07-29T05:02:26;8.27;;;5.82;;
42146;SDS011;27815;43.410;11.852;2023-07-29T05:06:43;12.15;;;6.00;;
42146;SDS011;27815;43.410;11.852;2023-07-29T05:10:59;9.73;;;6.38;;
42146;SDS011;27815;43.410;11.852;2023-07-29T05:15:16;12.15;;;8.60;;
42146;SDS011;27815;43.410;11.852;2023-07-29T05:19:35;16.95;;;12.73;;
42146;SDS011;27815;43.410;11.852;2023-07-29T05:23:52;12.93;;;8.35;;
42146;SDS011;27815;43.410;11.852;2023-07-29T05:28:09;30.65;;;19.25;;
42146;SDS011;27815;43.410;11.852;2023-07-29T05:32:30;117.32;;;69.05;;
42146;SDS011;27815;43.410;11.852;2023-07-29T05:36:47;57.05;;;37.78;;
42146;SDS011;27815;43.410;11.852;2023-07-29T05:41:06;129.65;;;76.65;;
42146;SDS011;27815;43.410;11.852;2023-07-29T05:45:24;25.33;;;17.50;;
42146;SDS011;27815;43.410;11.852;2023-07-29T05:49:29;15.17;;;12.53;;
42146;SDS011;27815;43.410;11.852;2023-07-29T05:53:46;18.30;;;10.98;;
42146;SDS011;27815;43.410;11.852;2023-07-29T05:57:51;15.93;;;11.02;;
42146;SDS011;27815;43.410;11.852;2023-07-29T06:02:08;14.23;;;8.98;;
42146;SDS011;27815;43.410;11.852;2023-07-29T06:06:25;28.88;;;9.00;;
42146;SDS011;27815;43.410;11.852;2023-07-29T06:10:30;16.40;;;8.32;;
42146;SDS011;27815;43.410;11.852;2023-07-29T06:14:36;9.97;;;8.00;;
42146;SDS011;27815;43.410;11.852;2023-07-29T06:18:52;10.52;;;8.50;;
42146;SDS011;27815;43.410;11.852;2023-07-29T06:23:09;12.48;;;9.35;;
42146;SDS011;27815;43.410;11.852;2023-07-29T06:27:32;12.05;;;8.60;;
42146;SDS011;27815;43.410;11.852;2023-07-29T06:31:51;13.60;;;8.48;;
42146;SDS011;27815;43.410;11.852;2023-07-29T06:36:10;8.93;;;7.53;;
42146;SDS011;27815;43.410;11.852;2023-07-29T06:40:27;11.15;;;7.70;;
42146;SDS011;27815;43.410;11.852;2023-07-29T06:44:44;10.88;;;6.90;;
42146;SDS011;27815;43.410;11.852;2023-07-29T06:48:51;9.52;;;7.00;;
42146;SDS011;27815;43.410;11.852;2023-07-29T06:53:08;10.23;;;6.30;;
42146;SDS011;27815;43.410;11.852;2023-07-29T06:57:28;13.23;;;6.57;;
42146;SDS011;27815;43.410;11.852;2023-07-29T07:01:45;11.18;;;5.80;;
42146;SDS011;27815;43.410;11.852;2023-07-29T07:11:37;7.80;;;6.07;;
42146;SDS011;27815;43.410;11.852;2023-07-29T07:21:17;9.10;;;6.32;;
42146;SDS011;27815;43.410;11.852;2023-07-29T08:50:28;7.75;;;3.47;;
42146;SDS011;27815;43.410;11.852;2023-07-29T08:55:20;6.75;;;2.80;;
42146;SDS011;27815;43.410;11.852;2023-07-29T09:20:33;5.35;;;2.90;;
42146;SDS011;27815;43.410;11.852;2023-07-29T11:04:55;5.95;;;2.45;;
42146;SDS011;27815;43.410;11.852;2023-07-29T11:14:07;4.65;;;2.05;;
42146;SDS011;27815;43.410;11.852;2023-07-29T11:18:30;4.30;;;2.28;;
42146;SDS011;27815;43.410;11.852;2023-07-29T11:22:49;3.95;;;1.95;;
42146;SDS011;27815;43.410;11.852;2023-07-29T11:27:11;5.32;;;2.08;;
42146;SDS011;27815;43.410;11.852;2023-07-29T11:31:38;3.70;;;2.00;;
42146;SDS011;27815;43.410;11.852;2023-07-29T11:35:44;4.53;;;2.22;;
42146;SDS011;27815;43.410;11.852;2023-07-29T11:40:26;6.47;;;2.10;;
42146;SDS011;27815;43.410;11.852;2023-07-29T11:45:09;4.68;;;2.20;;
42146;SDS011;27815;43.410;11.852;2023-07-29T11:49:49;6.88;;;2.53;;
42146;SDS011;27815;43.410;11.852;2023-07-29T11:54:12;5.32;;;2.45;;
42146;SDS011;27815;43.410;11.852;2023-07-29T11:59:01;4.70;;;2.25;;
42146;SDS011;27815;43.410;11.852;2023-07-29T12:03:34;4.63;;;2.60;;
42146;SDS011;27815;43.410;11.852;2023-07-29T12:07:47;4.70;;;2.53;;
42146;SDS011;27815;43.410;11.852;2023-07-29T12:12:12;6.03;;;2.40;;
42146;SDS011;27815;43.410;11.852;2023-07-29T12:16:50;4.07;;;2.17;;
42146;SDS011;27815;43.410;11.852;2023-07-29T12:21:13;5.15;;;2.42;;
42146;SDS011;27815;43.410;11.852;2023-07-29T12:25:34;7.10;;;2.70;;
42146;SDS011;27815;43.410;11.852;2023-07-29T12:29:42;6.72;;;2.45;;
42146;SDS011;27815;43.410;11.852;2023-07-29T12:34:16;3.95;;;2.03;;
42146;SDS011;27815;43.410;11.852;2023-07-29T12:38:38;5.63;;;2.40;;
42146;SDS011;27815;43.410;11.852;2023-07-29T12:43:00;6.97;;;2.63;;
42146;SDS011;27815;43.410;11.852;2023-07-29T12:47:18;4.63;;;2.72;;
42146;SDS011;27815;43.410;11.852;2023-07-29T12:51:34;4.07;;;2.30;;
42146;SDS011;27815;43.410;11.852;2023-07-29T13:01:23;5.88;;;2.40;;
42146;SDS011;27815;43.410;11.852;2023-07-29T13:16:30;5.65;;;2.55;;
42146;SDS011;27815;43.410;11.852;2023-07-29T13:31:25;4.63;;;2.60;;
42146;SDS011;27815;43.410;11.852;2023-07-29T13:53:55;5.30;;;2.33;;
42146;SDS011;27815;43.410;11.852;2023-07-29T13:58:59;6.63;;;2.60;;
42146;SDS011;27815;43.410;11.852;2023-07-29T14:08:21;5.55;;;2.42;;
42146;SDS011;27815;43.410;11.852;2023-07-29T14:14:01;4.97;;;2.45;;
42146;SDS011;27815;43.410;11.852;2023-07-29T14:18:53;5.10;;;2.60;;
42146;SDS011;27815;43.410;11.852;2023-07-29T14:35:19;6.53;;;2.80;;
42146;SDS011;27815;43.410;11.852;2023-07-29T14:39:22;4.70;;;2.75;;
42146;SDS011;27815;43.410;11.852;2023-07-29T14:43:26;5.90;;;2.70;;
42146;SDS011;27815;43.410;11.852;2023-07-29T14:47:29;5.47;;;2.75;;
42146;SDS011;27815;43.410;11.852;2023-07-29T14:51:40;5.10;;;2.40;;
42146;SDS011;27815;43.410;11.852;2023-07-29T14:55:44;4.65;;;2.83;;
42146;SDS011;27815;43.410;11.852;2023-07-29T14:59:47;4.40;;;2.40;;
42146;SDS011;27815;43.410;11.852;2023-07-29T15:03:50;4.57;;;2.30;;
42146;SDS011;27815;43.410;11.852;2023-07-29T15:07:56;5.95;;;2.45;;
42146;SDS011;27815;43.410;11.852;2023-07-29T15:12:01;7.20;;;2.60;;
42146;SDS011;27815;43.410;11.852;2023-07-29T15:16:04;4.40;;;2.10;;
42146;SDS011;27815;43.410;11.852;2023-07-29T15:20:07;10.27;;;6.03;;
42146;SDS011;27815;43.410;11.852;2023-07-29T15:24:16;5.57;;;2.63;;
42146;SDS011;27815;43.410;11.852;2023-07-29T15:28:19;4.75;;;2.30;;
42146;SDS011;27815;43.410;11.852;2023-07-29T15:32:24;7.00;;;2.42;;
42146;SDS011;27815;43.410;11.852;2023-07-29T15:36:27;5.45;;;2.67;;
42146;SDS011;27815;43.410;11.852;2023-07-29T15:40:31;6.05;;;2.30;;
42146;SDS011;27815;43.410;11.852;2023-07-29T15:44:40;5.10;;;2.40;;
42146;SDS011;27815;43.410;11.852;2023-07-29T15:48:45;4.53;;;2.47;;
42146;SDS011;27815;43.410;11.852;2023-07-29T15:52:49;5.75;;;2.22;;
42146;SDS011;27815;43.410;11.852;2023-07-29T15:56:55;5.28;;;2.53;;
42146;SDS011;27815;43.410;11.852;2023-07-29T16:00:58;6.03;;;3.33;;
42146;SDS011;27815;43.410;11.852;2023-07-29T16:05:04;6.47;;;2.38;;
42146;SDS011;27815;43.410;11.852;2023-07-29T16:09:12;14.13;;;2.50;;
42146;SDS011;27815;43.410;11.852;2023-07-29T16:13:15;5.50;;;2.33;;
42146;SDS011;27815;43.410;11.852;2023-07-29T16:17:24;4.30;;;2.40;;
42146;SDS011;27815;43.410;11.852;2023-07-29T16:21:31;4.75;;;2.67;;
42146;SDS011;27815;43.410;11.852;2023-07-29T16:25:35;4.93;;;2.40;;
42146;SDS011;27815;43.410;11.852;2023-07-29T16:29:39;3.92;;;2.50;;
42146;SDS011;27815;43.410;11.852;2023-07-29T16:33:43;4.82;;;2.65;;
42146;SDS011;27815;43.410;11.852;2023-07-29T16:37:46;3.90;;;2.38;;
42146;SDS011;27815;43.410;11.852;2023-07-29T16:41:49;5.45;;;2.45;;
42146;SDS011;27815;43.410;11.852;2023-07-29T16:46:06;3.78;;;2.00;;
42146;SDS011;27815;43.410;11.852;2023-07-29T16:50:10;5.43;;;2.35;;
42146;SDS011;27815;43.410;11.852;2023-07-29T16:54:14;4.28;;;2.15;;
42146;SDS011;27815;43.410;11.852;2023-07-29T16:58:23;3.92;;;2.30;;
42146;SDS011;27815;43.410;11.852;2023-07-29T17:02:28;5.68;;;2.28;;
42146;SDS011;27815;43.410;11.852;2023-07-29T17:06:32;6.85;;;2.40;;
42146;SDS011;27815;43.410;11.852;2023-07-29T17:10:37;4.73;;;2.27;;
42146;SDS011;27815;43.410;11.852;2023-07-29T17:14:41;3.63;;;2.05;;
42146;SDS011;27815;43.410;11.852;2023-07-29T17:18:44;3.50;;;2.20;;
42146;SDS011;27815;43.410;11.852;2023-07-29T17:22:47;4.97;;;2.40;;
42146;SDS011;27815;43.410;11.852;2023-07-29T17:26:50;4.60;;;2.10;;
42146;SDS011;27815;43.410;11.852;2023-07-29T17:30:54;4.15;;;2.13;;
42146;SDS011;27815;43.410;11.852;2023-07-29T17:34:56;4.03;;;2.28;;
42146;SDS011;27815;43.410;11.852;2023-07-29T17:39:02;4.20;;;2.20;;
42146;SDS011;27815;43.410;11.852;2023-07-29T17:43:09;7.50;;;2.60;;
42146;SDS011;27815;43.410;11.852;2023-07-29T17:47:20;5.30;;;1.75;;
42146;SDS011;27815;43.410;11.852;2023-07-29T17:51:40;3.05;;;1.70;;
42146;SDS011;27815;43.410;11.852;2023-07-29T17:55:43;4.20;;;1.80;;
42146;SDS011;27815;43.410;11.852;2023-07-29T17:59:59;5.00;;;2.20;;
42146;SDS011;27815;43.410;11.852;2023-07-29T18:04:05;4.82;;;2.25;;
42146;SDS011;27815;43.410;11.852;2023-07-29T18:08:08;5.13;;;2.38;;
42146;SDS011;27815;43.410;11.852;2023-07-29T18:12:11;6.80;;;2.28;;
42146;SDS011;27815;43.410;11.852;2023-07-29T18:16:14;3.50;;;1.77;;
42146;SDS011;27815;43.410;11.852;2023-07-29T18:20:24;9.02;;;2.22;;
42146;SDS011;27815;43.410;11.852;2023-07-29T18:24:31;5.22;;;2.05;;
42146;SDS011;27815;43.410;11.852;2023-07-29T18:28:34;3.88;;;2.10;;
42146;SDS011;27815;43.410;11.852;2023-07-29T18:32:37;3.95;;;2.25;;
42146;SDS011;27815;43.410;11.852;2023-07-29T18:36:54;6.55;;;2.55;;
42146;SDS011;27815;43.410;11.852;2023-07-29T18:40:57;8.90;;;2.20;;
42146;SDS011;27815;43.410;11.852;2023-07-29T18:45:00;4.53;;;2.03;;
42146;SDS011;27815;43.410;11.852;2023-07-29T18:49:03;6.65;;;2.30;;
42146;SDS011;27815;43.410;11.852;2023-07-29T18:53:11;5.82;;;1.95;;
42146;SDS011;27815;43.410;11.852;2023-07-29T18:57:13;5.28;;;1.92;;
42146;SDS011;27815;43.410;11.852;2023-07-29T19:01:17;4.00;;;1.80;;
42146;SDS011;27815;43.410;11.852;2023-07-29T19:05:20;7.38;;;2.35;;
42146;SDS011;27815;43.410;11.852;2023-07-29T19:09:23;3.90;;;2.00;;
42146;SDS011;27815;43.410;11.852;2023-07-29T19:13:27;5.75;;;2.58;;
42146;SDS011;27815;43.410;11.852;2023-07-29T19:17:30;5.68;;;2.42;;
42146;SDS011;27815;43.410;11.852;2023-07-29T19:21:35;4.88;;;2.80;;
42146;SDS011;27815;43.410;11.852;2023-07-29T19:25:46;4.40;;;2.10;;
42146;SDS011;27815;43.410;11.852;2023-07-29T19:29:51;4.50;;;1.85;;
42146;SDS011;27815;43.410;11.852;2023-07-29T19:33:55;4.38;;;2.10;;
42146;SDS011;27815;43.410;11.852;2023-07-29T19:37:59;4.55;;;2.47;;
42146;SDS011;27815;43.410;11.852;2023-07-29T19:42:02;6.00;;;2.22;;
42146;SDS011;27815;43.410;11.852;2023-07-29T19:46:06;6.38;;;2.22;;
42146;SDS011;27815;43.410;11.852;2023-07-29T19:50:12;3.70;;;1.98;;
42146;SDS011;27815;43.410;11.852;2023-07-29T19:54:15;6.65;;;2.70;;
42146;SDS011;27815;43.410;11.852;2023-07-29T19:58:18;4.78;;;2.20;;
42146;SDS011;27815;43.410;11.852;2023-07-29T20:02:21;5.50;;;2.58;;
42146;SDS011;27815;43.410;11.852;2023-07-29T20:06:25;4.60;;;2.40;;
42146;SDS011;27815;43.410;11.852;2023-07-29T20:10:31;5.67;;;2.67;;
42146;SDS011;27815;43.410;11.852;2023-07-29T20:14:35;5.72;;;2.55;;
42146;SDS011;27815;43.410;11.852;2023-07-29T20:18:40;5.55;;;2.55;;
42146;SDS011;27815;43.410;11.852;2023-07-29T20:22:46;5.13;;;2.47;;
42146;SDS011;27815;43.410;11.852;2023-07-29T20:26:51;7.00;;;2.53;;
42146;SDS011;27815;43.410;11.852;2023-07-29T20:30:57;5.15;;;2.55;;
42146;SDS011;27815;43.410;11.852;2023-07-29T20:35:00;5.68;;;2.38;;
42146;SDS011;27815;43.410;11.852;2023-07-29T20:39:04;5.20;;;2.40;;
42146;SDS011;27815;43.410;11.852;2023-07-29T20:43:41;5.05;;;2.28;;
42146;SDS011;27815;43.410;11.852;2023-07-29T20:47:50;4.50;;;2.22;;
42146;SDS011;27815;43.410;11.852;2023-07-29T20:51:54;6.78;;;2.60;;
42146;SDS011;27815;43.410;11.852;2023-07-29T20:56:01;4.30;;;2.70;;
42146;SDS011;27815;43.410;11.852;2023-07-29T21:00:04;4.82;;;2.50;;
42146;SDS011;27815;43.410;11.852;2023-07-29T21:04:11;5.63;;;2.78;;
42146;SDS011;27815;43.410;11.852;2023-07-29T21:08:14;4.90;;;2.60;;
42146;SDS011;27815;43.410;11.852;2023-07-29T21:12:17;8.07;;;2.78;;
42146;SDS011;27815;43.410;11.852;2023-07-29T21:16:20;3.97;;;2.33;;
42146;SDS011;27815;43.410;11.852;2023-07-29T21:20:23;5.05;;;2.60;;
42146;SDS011;27815;43.410;11.852;2023-07-29T21:24:27;6.95;;;2.53;;
42146;SDS011;27815;43.410;11.852;2023-07-29T21:28:30;9.27;;;3.17;;
42146;SDS011;27815;43.410;11.852;2023-07-29T21:32:33;8.05;;;2.67;;
42146;SDS011;27815;43.410;11.852;2023-07-29T21:36:36;4.78;;;2.65;;
42146;SDS011;27815;43.410;11.852;2023-07-29T21:40:39;4.32;;;2.47;;
42146;SDS011;27815;43.410;11.852;2023-07-29T21:44:42;7.50;;;2.70;;
42146;SDS011;27815;43.410;11.852;2023-07-29T21:48:46;6.55;;;2.42;;
42146;SDS011;27815;43.410;11.852;2023-07-29T21:52:49;8.98;;;2.70;;
42146;SDS011;27815;43.410;11.852;2023-07-29T21:56:52;5.75;;;2.92;;
42146;SDS011;27815;43.410;11.852;2023-07-29T22:00:55;9.15;;;2.95;;
42146;SDS011;27815;43.410;11.852;2023-07-29T22:04:58;6.20;;;2.50;;
42146;SDS011;27815;43.410;11.852;2023-07-29T22:09:01;5.03;;;2.75;;
42146;SDS011;27815;43.410;11.852;2023-07-29T22:13:05;5.63;;;2.50;;
42146;SDS011;27815;43.410;11.852;2023-07-29T22:17:09;6.82;;;2.47;;
42146;SDS011;27815;43.410;11.852;2023-07-29T22:21:12;5.78;;;2.70;;
42146;SDS011;27815;43.410;11.852;2023-07-29T22:25:15;5.72;;;3.00;;
42146;SDS011;27815;43.410;11.852;2023-07-29T22:29:18;6.05;;;2.60;;
42146;SDS011;27815;43.410;11.852;2023-07-29T22:33:21;8.05;;;3.00;;
42146;SDS011;27815;43.410;11.852;2023-07-29T22:37:25;7.57;;;2.67;;
42146;SDS011;27815;43.410;11.852;2023-07-29T22:41:28;5.38;;;2.65;;
42146;SDS011;27815;43.410;11.852;2023-07-29T22:45:31;5.95;;;3.13;;
42146;SDS011;27815;43.410;11.852;2023-07-29T22:49:34;5.28;;;2.55;;
42146;SDS011;27815;43.410;11.852;2023-07-29T22:53:37;6.25;;;2.60;;
42146;SDS011;27815;43.410;11.852;2023-07-29T22:57:40;4.30;;;2.70;;
42146;SDS011;27815;43.410;11.852;2023-07-29T23:01:43;7.72;;;2.60;;
42146;SDS011;27815;43.410;11.852;2023-07-29T23:05:46;5.18;;;2.78;;
42146;SDS011;27815;43.410;11.852;2023-07-29T23:09:49;4.43;;;2.40;;
42146;SDS011;27815;43.410;11.852;2023-07-29T23:13:52;4.47;;;2.55;;
42146;SDS011;27815;43.410;11.852;2023-07-29T23:17:55;6.85;;;2.65;;
42146;SDS011;27815;43.410;11.852;2023-07-29T23:21:58;5.75;;;2.88;;
42146;SDS011;27815;43.410;11.852;2023-07-29T23:26:01;6.05;;;2.58;;
42146;SDS011;27815;43.410;11.852;2023-07-29T23:30:04;6.85;;;3.08;;
42146;SDS011;27815;43.410;11.852;2023-07-29T23:34:08;5.15;;;2.97;;
42146;SDS011;27815;43.410;11.852;2023-07-29T23:38:11;4.65;;;2.60;;
42146;SDS011;27815;43.410;11.852;2023-07-29T23:42:14;4.60;;;2.90;;
42146;SDS011;27815;43.410;11.852;2023-07-29T23:46:17;6.07;;;3.03;;
42146;SDS011;27815;43.410;11.852;2023-07-29T23:50:20;5.55;;;2.65;;
42146;SDS011;27815;43.410;11.852;2023-07-29T23:54:26;4.47;;;2.77;;
42146;SDS011;27815;43.410;11.852;2023-07-29T23:58:29;5.93;;;2.97;;
